Time,TemperatureF,DewpointF,PressureIn,WindDirection,WindDirectionDegrees,WindSpeedMPH,WindSpeedGustMPH,Humidity,HourlyPrecipIn,Conditions,Clouds,dailyrainin,SoftwareType,DateUTC
2013-02-04 00:04:00,17.2,12.4,29.94,West,275,7.0,9.0,81,0.00,CLR,FEW,0.00,WeatherDisplay:10.37,2013-02-04 05:04:00,
2013-02-04 00:09:00,17.4,12.6,29.94,WSW,256,8.0,12.0,81,0.00,CLR,FEW,0.00,WeatherDisplay:10.37,2013-02-04 05:09:00,
2013-02-04 00:19:00,17.4,12.6,29.94,West,264,9.0,10.0,81,0.00,CLR,FEW,0.00,WeatherDisplay:10.37,2013-02-04 05:19:00,
2013-02-04 00:24:00,17.6,12.5,29.94,West,264,9.0,10.0,80,0.00,CLR,FEW,0.00,WeatherDisplay:10.37,2013-02-04 05:24:00,
2013-02-04 00:29:00,17.8,12.9,29.94,WSW,256,8.0,10.0,81,0.00,CLR,FEW,0.00,WeatherDisplay:10.37,2013-02-04 05:29:00,
2013-02-04 00:39:00,18.0,13.1,29.94,WNW,286,6.0,6.0,81,0.00,CLR,FEW,0.00,WeatherDisplay:10.37,2013-02-04 05:39:00,
2013-02-04 00:49:00,18.1,13.6,29.94,NW,326,3.0,11.0,82,0.00,CLR,FEW,0.00,WeatherDisplay:10.37,2013-02-04 05:49:00,
2013-02-04 00:54:00,18.0,13.7,29.94,NNW,338,3.0,8.0,83,0.00,CLR,FEW,0.00,WeatherDisplay:10.37,2013-02-04 05:54:00,
2013-02-04 00:59:00,18.0,13.7,29.94,WNW,290,5.0,8.0,83,0.00,CLR,FEW,0.00,WeatherDisplay:10.37,2013-02-04 05:59:00,
2013-02-04 01:04:00,18.1,13.8,29.94,West,267,5.0,6.0,83,0.00,CLR,FEW,0.00,WeatherDisplay:10.37,2013-02-04 06:04:00,
2013-02-04 01:09:00,18.0,13.9,29.94,West,265,5.0,5.0,84,0.00,CLR,FEW,0.00,WeatherDisplay:10.37,2013-02-04 06:09:00,
2013-02-04 01:14:00,18.0,13.9,29.94,West,272,5.0,6.0,84,0.00,CLR,FEW,0.00,WeatherDisplay:10.37,2013-02-04 06:14:00,
2013-02-04 01:19:00,18.1,14.1,29.94,WNW,295,3.0,3.0,84,0.00,CLR,FEW,0.00,WeatherDisplay:10.37,2013-02-04 06:19:00,
2013-02-04 01:29:00,18.1,14.4,29.94,WNW,300,2.0,2.0,85,0.00,CLR,FEW,0.00,WeatherDisplay:10.37,2013-02-04 06:29:00,
2013-02-04 01:34:00,18.3,14.8,29.94,WNW,290,1.0,1.0,86,0.00,CLR,FEW,0.00,WeatherDisplay:10.37,2013-02-04 06:34:00,
2013-02-04 01:39:00,18.1,14.7,29.94,West,267,1.0,1.0,86,0.00,CLR,FEW,0.00,WeatherDisplay:10.37,2013-02-04 06:39:00,
2013-02-04 01:44:00,17.8,14.3,29.94,WSW,252,1.0,4.0,86,0.00,CLR,FEW,0.00,WeatherDisplay:10.37,2013-02-04 06:44:00,
2013-02-04 01:49:00,18.0,14.5,29.94,West,264,1.0,4.0,86,0.00,CLR,FEW,0.00,WeatherDisplay:10.37,2013-02-04 06:49:00,
2013-02-04 01:59:00,17.8,14.3,29.94,West,269,2.0,6.0,86,0.00,CLR,FEW,0.00,WeatherDisplay:10.37,2013-02-04 06:59:00,
2013-02-04 02:04:00,17.8,14.3,29.94,West,272,2.0,0.0,86,0.00,CLR,FEW,0.00,WeatherDisplay:10.37,2013-02-04 07:04:00,
2013-02-04 02:09:00,17.8,14.3,29.94,West,273,1.0,3.0,86,0.00,CLR,FEW,0.00,WeatherDisplay:10.37,2013-02-04 07:09:00,
2013-02-04 02:19:00,17.4,13.9,29.94,West,275,0.0,0.0,86,0.00,CLR,FEW,0.00,WeatherDisplay:10.37,2013-02-04 07:19:00,
2013-02-04 02:29:00,17.8,14.3,29.94,West,263,0.0,0.0,86,0.00,CLR,FEW,0.00,WeatherDisplay:10.37,2013-02-04 07:29:00,
2013-02-04 02:39:00,17.6,13.9,29.94,WSW,257,0.0,1.0,85,0.00,CLR,FEW,0.00,WeatherDisplay:10.37,2013-02-04 07:39:00,
2013-02-04 02:49:00,17.4,13.7,29.94,SW,236,2.0,6.0,85,0.00,CLR,FEW,0.00,WeatherDisplay:10.37,2013-02-04 07:49:00,
2013-02-04 02:54:00,17.4,13.7,29.94,SW,229,2.0,6.0,85,0.00,CLR,FEW,0.00,WeatherDisplay:10.37,2013-02-04 07:54:00,
2013-02-04 02:59:00,17.4,13.7,29.94,WSW,237,5.0,8.0,85,0.00,CLR,FEW,0.00,WeatherDisplay:10.37,2013-02-04 07:59:00,
2013-02-04 03:04:00,17.1,13.3,29.94,WSW,244,5.0,8.0,85,0.00,CLR,FEW,0.00,WeatherDisplay:10.37,2013-02-04 08:04:00,
2013-02-04 03:09:00,17.2,13.5,29.94,WSW,239,5.0,7.0,85,0.00,CLR,FEW,0.00,WeatherDisplay:10.37,2013-02-04 08:09:00,
2013-02-04 03:19:00,17.2,13.8,29.94,SSW,210,3.0,5.0,86,0.00,CLR,FEW,0.00,WeatherDisplay:10.37,2013-02-04 08:19:00,
2013-02-04 03:29:00,17.2,13.8,29.94,SW,224,2.0,5.0,86,0.00,CLR,FEW,0.00,WeatherDisplay:10.37,2013-02-04 08:29:00,
2013-02-04 03:39:00,17.2,13.8,29.94,SW,233,2.0,8.0,86,0.00,CLR,FEW,0.00,WeatherDisplay:10.37,2013-02-04 08:39:00,
2013-02-04 03:49:00,17.8,14.3,29.94,WSW,250,3.0,3.0,86,0.00,CLR,FEW,0.00,WeatherDisplay:10.37,2013-02-04 08:49:00,
2013-02-04 03:59:00,17.8,14.0,29.94,WSW,250,1.0,1.0,85,0.00,CLR,FEW,0.00,WeatherDisplay:10.37,2013-02-04 08:59:00,
2013-02-04 04:04:00,17.6,13.9,29.94,WSW,243,1.0,3.0,85,0.00,CLR,FEW,0.00,WeatherDisplay:10.37,2013-02-04 09:04:00,
2013-02-04 04:09:00,17.8,13.8,29.94,SW,229,1.0,3.0,84,0.00,CLR,FEW,0.00,WeatherDisplay:10.37,2013-02-04 09:09:00,
2013-02-04 04:19:00,17.8,13.8,29.94,WSW,242,2.0,5.0,84,0.00,CLR,FEW,0.00,WeatherDisplay:10.37,2013-02-04 09:19:00,
2013-02-04 04:29:00,17.6,13.6,29.94,WSW,240,1.0,3.0,84,0.00,CLR,FEW,0.00,WeatherDisplay:10.37,2013-02-04 09:29:00,
2013-02-04 04:39:00,17.6,13.3,29.94,WSW,239,1.0,3.0,83,0.00,CLR,FEW,0.00,WeatherDisplay:10.37,2013-02-04 09:39:00,
2013-02-04 04:49:00,17.6,13.0,29.94,WSW,254,2.0,5.0,82,0.00,CLR,FEW,0.00,WeatherDisplay:10.37,2013-02-04 09:49:00,
2013-02-04 04:54:00,17.6,13.0,29.94,West,260,2.0,2.0,82,0.00,CLR,FEW,0.00,WeatherDisplay:10.37,2013-02-04 09:54:00,
2013-02-04 04:59:00,17.2,12.4,29.94,SW,234,2.0,5.0,81,0.00,CLR,FEW,0.00,WeatherDisplay:10.37,2013-02-04 09:59:00,
2013-02-04 05:04:00,17.1,12.2,29.94,SW,222,1.0,1.0,81,0.00,CLR,FEW,0.00,WeatherDisplay:10.37,2013-02-04 10:04:00,
2013-02-04 05:09:00,17.1,12.2,29.94,SW,231,1.0,0.0,81,0.00,CLR,FEW,0.00,WeatherDisplay:10.37,2013-02-04 10:09:00,
2013-02-04 05:19:00,17.1,12.0,29.94,SW,231,0.0,1.0,80,0.00,CLR,FEW,0.00,WeatherDisplay:10.37,2013-02-04 10:19:00,
2013-02-04 05:29:00,16.7,11.6,29.94,SW,224,1.0,6.0,80,0.00,CLR,FEW,0.00,WeatherDisplay:10.37,2013-02-04 10:29:00,
2013-02-04 05:39:00,16.9,11.8,29.94,SW,225,5.0,6.0,80,0.00,CLR,FEW,0.00,WeatherDisplay:10.37,2013-02-04 10:39:00,
2013-02-04 05:44:00,17.2,12.1,29.94,SW,225,3.0,5.0,80,0.00,CLR,FEW,0.00,WeatherDisplay:10.37,2013-02-04 10:44:00,
2013-02-04 05:49:00,16.7,11.6,29.94,SW,229,3.0,7.0,80,0.00,CLR,FEW,0.00,WeatherDisplay:10.37,2013-02-04 10:49:00,
2013-02-04 05:59:00,16.7,11.6,29.94,SW,222,2.0,7.0,80,0.00,CLR,FEW,0.00,WeatherDisplay:10.37,2013-02-04 10:59:00,
2013-02-04 06:04:00,17.1,12.0,29.94,SW,215,2.0,4.0,80,0.00,CLR,FEW,0.00,WeatherDisplay:10.37,2013-02-04 11:04:00,
2013-02-04 06:09:00,17.1,12.0,29.94,SW,215,3.0,5.0,80,0.00,CLR,FEW,0.00,WeatherDisplay:10.37,2013-02-04 11:09:00,
2013-02-04 06:19:00,16.5,11.4,29.94,SSW,206,3.0,6.0,80,0.00,CLR,FEW,0.00,WeatherDisplay:10.37,2013-02-04 11:19:00,
2013-02-04 06:29:00,16.9,11.8,29.94,SSW,206,3.0,5.0,80,0.00,CLR,FEW,0.00,WeatherDisplay:10.37,2013-02-04 11:29:00,
2013-02-04 06:39:00,17.2,12.4,29.94,SW,219,5.0,8.0,81,0.00,CLR,FEW,0.00,WeatherDisplay:10.37,2013-02-04 11:39:00,
2013-02-04 06:49:00,17.1,12.5,29.94,SW,227,6.0,6.0,82,0.00,CLR,FEW,0.00,WeatherDisplay:10.37,2013-02-04 11:49:00,
2013-02-04 06:54:00,16.7,12.2,29.94,SW,220,6.0,7.0,82,0.00,CLR,FEW,0.00,WeatherDisplay:10.37,2013-02-04 11:54:00,
2013-02-04 07:04:00,17.1,12.8,29.94,SW,219,5.0,7.0,83,0.00,CLR,FEW,0.00,WeatherDisplay:10.37,2013-02-04 12:04:00,
2013-02-04 07:09:00,16.7,12.4,29.94,SW,220,6.0,6.0,83,0.00,CLR,FEW,0.00,WeatherDisplay:10.37,2013-02-04 12:09:00,
2013-02-04 07:19:00,16.5,12.5,29.94,SW,225,5.0,6.0,84,0.00,CLR,FEW,0.00,WeatherDisplay:10.37,2013-02-04 12:19:00,
2013-02-04 07:30:00,16.7,12.7,29.94,SW,217,3.0,6.0,84,0.00,CLR,FEW,0.00,WeatherDisplay:10.37,2013-02-04 12:30:00,
2013-02-04 07:39:00,16.5,12.5,29.94,SSW,201,2.0,6.0,84,0.00,CLR,FEW,0.00,WeatherDisplay:10.37,2013-02-04 12:39:00,
2013-02-04 07:49:00,16.7,12.7,29.94,SSW,211,2.0,2.0,84,0.00,CLR,FEW,0.00,WeatherDisplay:10.37,2013-02-04 12:49:00,
2013-02-04 07:59:00,16.9,13.2,29.94,SSW,199,2.0,7.0,85,0.00,CLR,FEW,0.00,WeatherDisplay:10.37,2013-02-04 12:59:00,
2013-02-04 08:04:00,16.9,13.2,29.91,SSW,209,3.0,7.0,85,0.00,CLR,FEW,0.00,WeatherDisplay:10.37,2013-02-04 13:04:00,
2013-02-04 08:09:00,16.7,13.0,29.91,SSW,210,5.0,6.0,85,0.00,CLR,FEW,0.00,WeatherDisplay:10.37,2013-02-04 13:09:00,
2013-02-04 08:19:00,17.4,13.7,29.91,SSW,206,5.0,6.0,85,0.00,CLR,FEW,0.00,WeatherDisplay:10.37,2013-02-04 13:19:00,
2013-02-04 08:29:00,17.6,13.6,29.91,SSW,210,3.0,5.0,84,0.00,CLR,FEW,0.00,WeatherDisplay:10.37,2013-02-04 13:29:00,
2013-02-04 08:39:00,17.4,13.4,29.91,South,176,2.0,7.0,84,0.00,CLR,FEW,0.00,WeatherDisplay:10.37,2013-02-04 13:39:00,
2013-02-04 08:44:00,17.6,13.6,29.91,South,177,3.0,7.0,84,0.00,CLR,FEW,0.00,WeatherDisplay:10.37,2013-02-04 13:44:00,
2013-02-04 08:49:00,17.4,13.4,29.91,South,183,5.0,5.0,84,0.00,CLR,FEW,0.00,WeatherDisplay:10.37,2013-02-04 13:49:00,
2013-02-04 08:55:00,24.4,22.2,29.79,SE,140,0.0,0.0,91,0.00,CLR,FEW,0.00,WeatherDisplay:10.37,2013-02-04 13:55:00,
2013-02-04 08:59:00,18.0,14.2,29.91,South,177,5.0,6.0,85,0.00,CLR,FEW,0.00,WeatherDisplay:10.37,2013-02-04 13:59:00,
2013-02-04 09:00:00,24.4,22.2,29.79,SE,140,0.0,0.0,91,0.00,CLR,FEW,0.00,WeatherDisplay:10.37,2013-02-04 14:00:00,
2013-02-04 09:04:00,18.1,14.4,29.91,South,184,5.0,6.0,85,0.00,CLR,FEW,0.00,WeatherDisplay:10.37,2013-02-04 14:04:00,
2013-02-04 09:05:00,24.8,22.5,29.79,SE,140,0.0,0.0,91,0.00,CLR,FEW,0.00,WeatherDisplay:10.37,2013-02-04 14:05:00,
2013-02-04 09:09:00,18.1,14.4,29.91,SSW,192,5.0,8.0,85,0.00,CLR,FEW,0.00,WeatherDisplay:10.37,2013-02-04 14:09:00,
2013-02-04 09:10:00,24.6,22.4,29.79,SE,140,0.0,0.0,91,0.00,CLR,FEW,0.00,WeatherDisplay:10.37,2013-02-04 14:10:00,
2013-02-04 09:14:00,18.3,14.3,29.91,South,187,6.0,8.0,84,0.00,CLR,FEW,0.00,WeatherDisplay:10.37,2013-02-04 14:14:00,
2013-02-04 09:15:00,24.8,22.5,29.79,SE,140,0.0,0.0,91,0.00,CLR,FEW,0.00,WeatherDisplay:10.37,2013-02-04 14:15:00,
2013-02-04 09:19:00,18.5,14.5,29.91,South,182,5.0,6.0,84,0.00,CLR,FEW,0.00,WeatherDisplay:10.37,2013-02-04 14:19:00,
2013-02-04 09:20:00,24.6,22.4,29.79,SE,140,0.0,0.0,91,0.00,CLR,FEW,0.00,WeatherDisplay:10.37,2013-02-04 14:20:00,
2013-02-04 09:29:00,18.5,14.5,29.91,SSW,197,6.0,6.0,84,0.00,CLR,FEW,0.00,WeatherDisplay:10.37,2013-02-04 14:29:00,
2013-02-04 09:39:00,18.3,14.3,29.91,South,183,3.0,6.0,84,0.00,CLR,FEW,0.00,WeatherDisplay:10.37,2013-02-04 14:39:00,
2013-02-04 09:49:00,19.0,15.0,29.91,South,180,5.0,7.0,84,0.00,CLR,FEW,0.00,WeatherDisplay:10.37,2013-02-04 14:49:00,
2013-02-04 09:59:00,18.9,14.8,29.91,South,185,7.0,9.0,84,0.00,CLR,FEW,0.00,WeatherDisplay:10.37,2013-02-04 14:59:00,
2013-02-04 10:04:00,18.7,14.6,29.91,South,184,7.0,7.0,84,0.00,CLR,FEW,0.00,WeatherDisplay:10.37,2013-02-04 15:04:00,
2013-02-04 10:09:00,19.0,15.0,29.91,SSW,201,6.0,7.0,84,0.00,CLR,FEW,0.00,WeatherDisplay:10.37,2013-02-04 15:09:00,
2013-02-04 10:19:00,19.0,15.0,29.91,South,183,3.0,5.0,84,0.00,CLR,FEW,0.00,WeatherDisplay:10.37,2013-02-04 15:19:00,
2013-02-04 10:29:00,19.2,15.5,29.91,SSE,156,3.0,5.0,85,0.00,CLR,FEW,0.00,WeatherDisplay:10.37,2013-02-04 15:29:00,
2013-02-04 10:34:00,19.6,16.1,29.91,South,184,5.0,5.0,86,0.00,CLR,FEW,0.00,WeatherDisplay:10.37,2013-02-04 15:34:00,
2013-02-04 10:39:00,20.1,16.6,29.91,SSW,204,5.0,5.0,86,0.00,CLR,FEW,0.00,WeatherDisplay:10.37,2013-02-04 15:39:00,
2013-02-04 10:49:00,21.0,17.5,29.91,SSW,196,5.0,6.0,86,0.00,CLR,FEW,0.00,WeatherDisplay:10.37,2013-02-04 15:49:00,
2013-02-04 11:00:00,21.6,17.7,29.91,South,172,2.0,2.0,85,0.00,CLR,FEW,0.00,WeatherDisplay:10.37,2013-02-04 16:00:00,
2013-02-04 11:09:00,22.6,18.5,29.91,SW,235,1.0,2.0,84,0.00,CLR,FEW,0.00,WeatherDisplay:10.37,2013-02-04 16:09:00,
2013-02-04 11:19:00,23.0,18.3,29.91,SW,218,2.0,8.0,82,0.00,CLR,FEW,0.00,WeatherDisplay:10.37,2013-02-04 16:19:00,
2013-02-04 11:29:00,23.0,18.0,29.91,SW,225,2.0,6.0,81,0.00,CLR,FEW,0.00,WeatherDisplay:10.37,2013-02-04 16:29:00,
2013-02-04 11:39:00,22.8,17.9,29.88,SSW,205,2.0,6.0,81,0.00,CLR,FEW,0.00,WeatherDisplay:10.37,2013-02-04 16:39:00,
2013-02-04 11:44:00,22.5,17.8,29.88,SW,223,5.0,7.0,82,0.00,CLR,FEW,0.00,WeatherDisplay:10.37,2013-02-04 16:44:00,
2013-02-04 11:49:00,22.5,17.8,29.88,SW,221,5.0,5.0,82,0.00,CLR,FEW,0.00,WeatherDisplay:10.37,2013-02-04 16:49:00,
2013-02-04 11:54:00,23.9,19.2,29.88,SW,220,5.0,5.0,82,0.00,CLR,FEW,0.00,WeatherDisplay:10.37,2013-02-04 16:54:00,
2013-02-04 11:59:00,22.8,17.9,29.88,SW,218,3.0,6.0,81,0.00,CLR,FEW,0.00,WeatherDisplay:10.37,2013-02-04 16:59:00,
2013-02-04 12:04:00,23.2,18.5,29.88,SSW,204,5.0,9.0,82,0.00,CLR,FEW,0.00,WeatherDisplay:10.37,2013-02-04 17:04:00,
2013-02-04 12:09:00,23.0,18.0,29.88,SSW,211,6.0,10.0,81,0.00,CLR,FEW,0.00,WeatherDisplay:10.37,2013-02-04 17:09:00,
2013-02-04 12:19:00,23.0,18.6,29.88,South,190,8.0,8.0,83,0.00,CLR,FEW,0.00,WeatherDisplay:10.37,2013-02-04 17:19:00,
2013-02-04 12:29:00,24.6,20.5,29.88,SSW,201,8.0,9.0,84,0.00,CLR,FEW,0.00,WeatherDisplay:10.37,2013-02-04 17:29:00,
2013-02-04 12:39:00,24.1,19.9,29.88,SSW,207,6.0,6.0,84,0.00,CLR,FEW,0.00,WeatherDisplay:10.37,2013-02-04 17:39:00,
2013-02-04 12:49:00,23.7,19.6,29.88,SSW,208,3.0,9.0,84,0.00,CLR,FEW,0.00,WeatherDisplay:10.37,2013-02-04 17:49:00,
2013-02-04 12:59:00,23.9,19.8,29.85,SSW,213,8.0,12.0,84,0.00,CLR,FEW,0.00,WeatherDisplay:10.37,2013-02-04 17:59:00,
2013-02-04 13:04:00,24.6,20.5,29.85,SSW,201,7.0,7.0,84,0.00,CLR,FEW,0.00,WeatherDisplay:10.37,2013-02-04 18:04:00,
2013-02-04 13:09:00,24.3,20.1,29.85,South,189,7.0,7.0,84,0.00,CLR,FEW,0.00,WeatherDisplay:10.37,2013-02-04 18:09:00,
2013-02-04 13:19:00,24.8,20.7,29.85,SSW,200,3.0,8.0,84,0.00,CLR,FEW,0.00,WeatherDisplay:10.37,2013-02-04 18:19:00,
2013-02-04 13:29:00,25.9,22.0,29.85,SW,225,5.0,11.0,85,0.00,CLR,FEW,0.00,WeatherDisplay:10.37,2013-02-04 18:29:00,
2013-02-04 13:34:00,25.7,21.5,29.85,SW,232,7.0,11.0,84,0.00,CLR,FEW,0.00,WeatherDisplay:10.37,2013-02-04 18:34:00,
2013-02-04 13:39:00,24.8,20.7,29.85,SSW,200,6.0,6.0,84,0.00,CLR,FEW,0.00,WeatherDisplay:10.37,2013-02-04 18:39:00,
2013-02-04 13:49:00,24.8,20.7,29.85,SSE,166,5.0,6.0,84,0.00,CLR,FEW,0.00,WeatherDisplay:10.37,2013-02-04 18:49:00,
2013-02-04 13:54:00,24.6,20.5,29.85,South,170,3.0,5.0,84,0.00,CLR,FEW,0.00,WeatherDisplay:10.37,2013-02-04 18:54:00,
2013-02-04 13:59:00,25.0,21.1,29.82,South,176,3.0,5.0,85,0.00,CLR,FEW,0.00,WeatherDisplay:10.37,2013-02-04 18:59:00,
2013-02-04 14:04:00,25.0,21.4,29.82,SSW,199,3.0,7.0,86,0.00,CLR,FEW,0.00,WeatherDisplay:10.37,2013-02-04 19:04:00,
2013-02-04 14:09:00,25.0,21.1,29.82,SSW,196,3.0,7.0,85,0.00,CLR,FEW,0.00,WeatherDisplay:10.37,2013-02-04 19:09:00,
2013-02-04 14:14:00,25.5,21.6,29.82,SSW,204,5.0,8.0,85,0.00,CLR,FEW,0.00,WeatherDisplay:10.37,2013-02-04 19:14:00,
2013-02-04 14:19:00,26.8,22.6,29.82,SSW,208,5.0,5.0,84,0.00,CLR,FEW,0.00,WeatherDisplay:10.37,2013-02-04 19:19:00,
2013-02-04 14:24:00,26.8,22.6,29.82,SSW,206,5.0,5.0,84,0.00,CLR,FEW,0.00,WeatherDisplay:10.37,2013-02-04 19:24:00,
2013-02-04 14:29:00,25.9,21.7,29.82,SSW,205,5.0,5.0,84,0.00,CLR,FEW,0.00,WeatherDisplay:10.37,2013-02-04 19:29:00,
2013-02-04 14:39:00,26.4,22.2,29.82,South,176,3.0,3.0,84,0.00,CLR,FEW,0.00,WeatherDisplay:10.37,2013-02-04 19:39:00,
2013-02-04 14:49:00,27.7,23.2,29.82,SW,217,3.0,6.0,83,0.00,CLR,FEW,0.00,WeatherDisplay:10.37,2013-02-04 19:49:00,
2013-02-04 14:54:00,27.0,22.5,29.79,SW,227,3.0,4.0,83,0.00,CLR,FEW,0.00,WeatherDisplay:10.37,2013-02-04 19:54:00,
2013-02-04 14:59:00,26.4,21.7,29.79,South,169,3.0,4.0,82,0.00,CLR,FEW,0.00,WeatherDisplay:10.37,2013-02-04 19:59:00,
2013-02-04 15:04:00,26.6,21.6,29.79,SE,135,2.0,2.0,81,0.00,CLR,FEW,0.00,WeatherDisplay:10.37,2013-02-04 20:04:00,
2013-02-04 15:09:00,27.1,22.1,29.79,SSE,155,2.0,2.0,81,0.00,CLR,FEW,0.00,WeatherDisplay:10.37,2013-02-04 20:09:00,
2013-02-04 15:19:00,26.4,21.4,29.79,South,178,1.0,2.0,81,0.00,CLR,FEW,0.00,WeatherDisplay:10.37,2013-02-04 20:19:00,
2013-02-04 15:29:00,25.9,21.1,29.79,South,191,2.0,5.0,82,0.00,CLR,FEW,0.00,WeatherDisplay:10.37,2013-02-04 20:29:00,
2013-02-04 15:39:00,26.1,21.6,29.79,SSW,210,2.0,3.0,83,0.00,CLR,FEW,0.00,WeatherDisplay:10.37,2013-02-04 20:39:00,
2013-02-04 15:44:00,25.9,21.7,29.79,SW,229,3.0,6.0,84,0.00,CLR,FEW,0.00,WeatherDisplay:10.37,2013-02-04 20:44:00,
2013-02-04 15:49:00,25.7,21.5,29.79,SSW,192,3.0,6.0,84,0.00,CLR,FEW,0.00,WeatherDisplay:10.37,2013-02-04 20:49:00,
2013-02-04 15:54:00,25.7,21.5,29.79,SSE,168,3.0,6.0,84,0.00,CLR,FEW,0.00,WeatherDisplay:10.37,2013-02-04 20:54:00,
2013-02-04 15:59:00,25.9,22.0,29.79,SSE,160,5.0,5.0,85,0.00,CLR,FEW,0.00,WeatherDisplay:10.37,2013-02-04 20:59:00,
2013-02-04 16:04:00,25.3,21.5,29.79,South,171,5.0,6.0,85,0.00,CLR,FEW,0.00,WeatherDisplay:10.37,2013-02-04 21:04:00,
2013-02-04 16:09:00,25.5,21.6,29.79,South,175,5.0,5.0,85,0.00,CLR,FEW,0.00,WeatherDisplay:10.37,2013-02-04 21:09:00,
2013-02-04 16:19:00,26.1,22.2,29.79,SSE,148,3.0,5.0,85,0.00,CLR,FEW,0.00,WeatherDisplay:10.37,2013-02-04 21:19:00,
2013-02-04 16:29:00,25.3,21.5,29.79,SSE,155,2.0,2.0,85,0.00,CLR,FEW,0.00,WeatherDisplay:10.37,2013-02-04 21:29:00,
2013-02-04 16:34:00,25.3,21.7,29.79,SSE,155,2.0,0.0,86,0.00,CLR,FEW,0.00,WeatherDisplay:10.37,2013-02-04 21:34:00,
2013-02-04 16:39:00,25.9,22.5,29.79,SSE,155,1.0,0.0,87,0.00,CLR,FEW,0.00,WeatherDisplay:10.37,2013-02-04 21:39:00,
2013-02-04 16:44:00,25.7,22.4,29.79,SSE,155,0.0,0.0,87,0.00,CLR,FEW,0.00,WeatherDisplay:10.37,2013-02-04 21:44:00,
2013-02-04 16:49:00,25.2,21.8,29.79,SSE,160,0.0,5.0,87,0.00,CLR,FEW,0.00,WeatherDisplay:10.37,2013-02-04 21:49:00,
2013-02-04 16:54:00,25.5,21.9,29.79,SSE,159,1.0,5.0,86,0.00,CLR,FEW,0.00,WeatherDisplay:10.37,2013-02-04 21:54:00,
2013-02-04 16:59:00,25.5,21.9,29.79,SSW,194,1.0,3.0,86,0.00,CLR,FEW,0.00,WeatherDisplay:10.37,2013-02-04 21:59:00,
2013-02-04 17:04:00,25.3,21.5,29.79,SSW,210,1.0,3.0,85,0.00,CLR,FEW,0.00,WeatherDisplay:10.37,2013-02-04 22:04:00,
2013-02-04 17:09:00,25.5,21.6,29.79,SSW,210,2.0,3.0,85,0.00,CLR,FEW,0.00,WeatherDisplay:10.37,2013-02-04 22:09:00,
2013-02-04 17:19:00,25.2,21.3,29.79,SSW,210,1.0,0.0,85,0.00,CLR,FEW,0.00,WeatherDisplay:10.37,2013-02-04 22:19:00,
2013-02-04 17:29:00,25.0,21.4,29.79,SSW,210,0.0,0.0,86,0.00,CLR,FEW,0.00,WeatherDisplay:10.37,2013-02-04 22:29:00,
2013-02-04 17:34:00,24.8,21.5,29.79,SSW,210,0.0,2.0,87,0.00,CLR,FEW,0.00,WeatherDisplay:10.37,2013-02-04 22:34:00,
2013-02-04 17:39:00,24.8,21.5,29.79,SSW,210,1.0,2.0,87,0.00,CLR,FEW,0.00,WeatherDisplay:10.37,2013-02-04 22:39:00,
2013-02-04 17:49:00,24.6,21.3,29.79,SE,145,2.0,4.0,87,0.00,CLR,FEW,0.00,WeatherDisplay:10.37,2013-02-04 22:49:00,
2013-02-04 17:59:00,24.8,21.8,29.79,SE,140,2.0,3.0,88,0.00,CLR,FEW,0.00,WeatherDisplay:10.37,2013-02-04 22:59:00,
2013-02-04 18:04:00,25.0,21.9,29.79,SE,140,2.0,3.0,88,0.00,CLR,FEW,0.00,WeatherDisplay:10.37,2013-02-04 23:04:00,
2013-02-04 18:09:00,25.2,22.1,29.79,SE,140,1.0,0.0,88,0.00,CLR,FEW,0.00,WeatherDisplay:10.37,2013-02-04 23:09:00,
2013-02-04 18:19:00,24.8,22.0,29.79,SE,140,0.0,0.0,89,0.00,CLR,FEW,0.00,WeatherDisplay:10.37,2013-02-04 23:19:00,
2013-02-04 18:24:00,25.0,22.2,29.79,SE,140,0.0,0.0,89,0.00,CLR,FEW,0.00,WeatherDisplay:10.37,2013-02-04 23:24:00,
2013-02-04 18:29:00,25.0,22.2,29.79,SE,140,0.0,0.0,89,0.00,CLR,FEW,0.00,WeatherDisplay:10.37,2013-02-04 23:29:00,
2013-02-04 18:39:00,25.0,22.5,29.79,SE,140,0.0,0.0,90,0.00,CLR,FEW,0.00,WeatherDisplay:10.37,2013-02-04 23:39:00,
2013-02-04 18:44:00,25.0,22.5,29.79,SE,140,0.0,0.0,90,0.00,CLR,FEW,0.00,WeatherDisplay:10.37,2013-02-04 23:44:00,
2013-02-04 18:49:00,25.0,22.7,29.79,SE,140,0.0,0.0,91,0.00,CLR,FEW,0.00,WeatherDisplay:10.37,2013-02-04 23:49:00,
2013-02-04 18:59:00,24.6,22.1,29.79,SE,140,0.0,0.0,90,0.00,CLR,FEW,0.00,WeatherDisplay:10.37,2013-02-04 23:59:00,
2013-02-04 19:04:00,24.6,22.1,29.79,SE,140,0.0,0.0,90,0.00,CLR,FEW,0.00,WeatherDisplay:10.37,2013-02-05 00:04:00,
2013-02-04 19:09:00,24.4,21.9,29.79,SE,140,0.0,0.0,90,0.00,CLR,FEW,0.00,WeatherDisplay:10.37,2013-02-05 00:09:00,
2013-02-04 19:19:00,24.4,21.9,29.79,SE,140,0.0,0.0,90,0.00,CLR,FEW,0.00,WeatherDisplay:10.37,2013-02-05 00:19:00,
2013-02-04 19:29:00,24.4,21.9,29.79,SE,140,0.0,0.0,90,0.00,CLR,FEW,0.00,WeatherDisplay:10.37,2013-02-05 00:29:00,
2013-02-04 19:34:00,24.4,21.9,29.79,SE,140,0.0,0.0,90,0.00,CLR,FEW,0.00,WeatherDisplay:10.37,2013-02-05 00:34:00,
2013-02-04 19:39:00,24.4,21.9,29.79,SE,140,0.0,0.0,90,0.00,CLR,FEW,0.00,WeatherDisplay:10.37,2013-02-05 00:39:00,
2013-02-04 19:49:00,24.6,22.1,29.79,SE,140,0.0,0.0,90,0.00,CLR,FEW,0.00,WeatherDisplay:10.37,2013-02-05 00:49:00,
2013-02-04 19:54:00,24.6,22.1,29.79,SE,140,0.0,0.0,90,0.00,CLR,FEW,0.00,WeatherDisplay:10.37,2013-02-05 00:54:00,
2013-02-04 20:00:00,24.4,22.2,29.79,SE,140,0.0,0.0,91,0.00,CLR,FEW,0.00,WeatherDisplay:10.37,2013-02-05 01:00:00,
2013-02-04 20:09:00,24.4,22.2,29.76,SE,140,0.0,0.0,91,0.00,CLR,FEW,0.00,WeatherDisplay:10.37,2013-02-05 01:09:00,
2013-02-04 20:14:00,24.4,22.2,29.79,SE,140,0.0,0.0,91,0.00,CLR,FEW,0.00,WeatherDisplay:10.37,2013-02-05 01:14:00,
2013-02-04 20:19:00,24.6,22.4,29.79,SE,140,0.0,0.0,91,0.00,CLR,FEW,0.00,WeatherDisplay:10.37,2013-02-05 01:19:00,
2013-02-04 20:29:00,24.6,22.4,29.79,SE,140,0.0,0.0,91,0.00,CLR,FEW,0.00,WeatherDisplay:10.37,2013-02-05 01:29:00,
2013-02-04 20:34:00,24.6,22.4,29.79,SE,140,0.0,0.0,91,0.00,CLR,FEW,0.00,WeatherDisplay:10.37,2013-02-05 01:34:00,
2013-02-04 20:39:00,24.6,22.4,29.79,SE,140,0.0,0.0,91,0.00,CLR,FEW,0.00,WeatherDisplay:10.37,2013-02-05 01:39:00,
2013-02-04 20:49:00,24.6,22.4,29.79,SE,140,0.0,0.0,91,0.00,CLR,FEW,0.00,WeatherDisplay:10.37,2013-02-05 01:49:00,